Date,TemperatureHighF,TemperatureAvgF,TemperatureLowF,DewpointHighF,DewpointAvgF,DewpointLowF,HumidityHigh,HumidityAvg,HumidityLow,PressureMaxIn,PressureMinIn,WindSpeedMaxMPH,WindSpeedAvgMPH,GustSpeedMaxMPH,PrecipitationSumIn
2013-1-4,34.0,3.8,-19.0,13.0,-5.7,-23.0,92,69,31,30.96,30.70,2,0,0,0.00
2013-1-5,35.0,7.9,-14.0,13.0,-1.3,-18.0,89,70,36,30.91,30.75,10,1,0,0.00
2013-1-6,34.0,8.6,-12.0,15.0,0.8,-16.0,90,73,36,30.85,30.53,4,0,0,0.00
2013-1-7,41.0,14.4,-6.0,16.0,3.6,-9.0,89,67,29,30.54,30.33,4,0,0,0.00
2013-1-8,40.0,14.0,-7.0,19.0,5.1,-11.0,91,71,31,30.77,30.42,8,1,0,0.00
2013-1-9,48.0,17.4,-6.0,21.0,8.2,-10.0,92,72,29,30.80,30.46,3,0,0,0.00
2013-1-10,46.0,25.7,-2.0,26.0,14.0,-5.0,91,65,32,30.45,29.69,10,3,18,0.00
2013-1-11,35.0,19.2,5.0,24.0,9.1,-4.0,89,66,41,30.04,29.48,18,4,23,0.00
2013-1-12,23.0,1.8,-19.0,8.0,-5.9,-23.0,85,72,34,30.43,30.04,6,1,0,0.00
2013-1-13,14.0,0.9,-17.0,8.0,-3.4,-21.0,87,82,61,30.51,30.34,5,1,0,0.00
2013-1-18,44.0,15.5,-6.0,21.0,6.5,-9.0,92,72,35,30.86,30.63,4,1,0,0.00
2013-1-19,44.0,15.3,-7.0,18.0,3.1,-11.0,91,66,24,30.85,30.68,4,1,0,0.00
2013-1-20,41.0,15.1,-10.0,20.0,2.9,-13.0,93,65,28,30.81,30.60,5,1,0,0.00
2013-1-21,49.0,18.4,-5.0,16.0,5.6,-8.0,91,65,22,30.77,30.58,7,1,0,0.00
2013-1-22,53.0,19.3,-4.0,19.0,4.9,-8.0,91,63,13,30.75,30.58,4,0,0,0.00
2013-1-23,52.0,19.9,-6.0,19.0,6.9,-10.0,95,65,19,30.79,30.60,5,0,0,0.00
2013-1-24,48.0,33.0,16.0,30.0,22.4,12.0,86,67,37,30.63,30.34,4,1,0,0.00
2013-1-25,44.0,34.6,28.0,33.0,29.2,24.0,93,81,65,30.39,30.19,5,0,0,0.00
2013-1-26,39.0,33.0,28.0,35.0,31.2,27.0,97,93,85,30.23,29.82,1,0,0,0.00
2013-1-27,50.0,37.4,31.0,37.0,30.3,22.0,97,79,38,29.92,29.73,11,1,19,0.00
2013-1-28,34.0,29.1,20.0,32.0,25.4,17.0,96,86,63,29.83,29.65,11,2,20,0.00
2013-1-29,23.0,16.9,11.0,18.0,11.9,6.0,91,81,48,30.27,29.82,6,1,0,0.00
2013-1-30,28.0,18.1,4.0,21.0,11.2,0.0,89,75,50,30.48,30.26,4,1,0,0.00
2013-1-31,44.0,30.6,13.0,24.0,18.4,11.0,93,64,34,30.46,30.29,4,1,0,0.00
2013-2-1,45.0,24.0,5.0,25.0,13.6,2.0,94,69,34,30.58,30.39,6,1,0,0.00
2013-2-2,45.0,22.9,4.0,20.0,12.6,1.0,94,70,29,30.70,30.55,3,0,0,0.00
2013-2-3,42.0,24.9,10.0,29.0,18.3,8.0,96,79,34,30.58,30.24,9,1,17,0.00
2013-2-4,45.0,27.4,15.0,26.0,18.8,11.0,94,73,33,30.31,30.16,5,1,0,0.00
2013-2-5,48.0,33.6,7.0,22.0,18.4,5.0,93,58,33,30.42,30.15,7,2,0,0.00
2013-2-6,48.0,30.3,13.0,29.0,21.8,11.0,94,74,36,30.19,30.01,6,1,0,0.00
2013-2-7,47.0,29.1,18.0,27.0,19.9,14.0,96,72,35,30.28,30.10,3,1,0,0.00
2013-2-8,46.0,34.1,17.0,28.0,17.9,11.0,81,54,31,30.13,29.68,14,4,22,0.00
2013-2-9,35.0,27.1,22.0,26.0,21.3,16.0,94,80,48,29.79,29.52,7,2,12,0.00
2013-2-10,32.0,20.5,11.0,20.0,15.0,8.0,92,80,52,30.04,29.76,3,0,0,0.00
2013-2-11,36.0,22.6,13.0,21.0,15.3,11.0,92,75,44,30.14,30.03,6,2,0,0.00
2013-2-12,30.0,16.9,0.0,15.0,7.5,-2.0,91,69,43,30.52,30.32,4,1,0,0.00
2013-2-13,42.0,20.1,-1.0,20.0,10.8,-4.0,90,70,37,30.55,30.37,5,1,0,0.00
2013-2-14,38.0,19.8,3.0,21.0,11.7,0.0,91,73,44,30.54,30.38,6,1,0,0.00
2013-2-15,36.0,18.9,1.0,16.0,8.4,-2.0,91,67,37,30.74,30.25,9,1,0,0.00
2013-2-16,48.0,24.6,1.0,18.0,9.1,-2.0,92,59,23,30.76,30.25,5,1,0,0.00
2013-2-17,48.0,29.6,8.0,24.0,10.2,4.0,89,52,16,30.36,29.80,9,2,17,0.00
2013-2-18,38.0,22.5,5.0,25.0,9.0,-4.0,91,62,19,30.26,29.94,6,1,13,0.00
2013-2-19,46.0,18.7,-6.0,14.0,5.1,-9.0,91,62,19,30.35,29.92,4,0,0,0.00
2013-2-20,34.0,25.6,17.0,27.0,19.4,10.0,93,78,62,29.92,29.60,5,1,0,0.00
2013-2-21,36.0,26.7,20.0,27.0,23.2,18.0,95,87,68,29.94,29.71,3,0,0,0.00
2013-2-22,32.0,19.0,0.0,24.0,16.0,-4.0,94,88,72,30.31,29.94,3,0,0,0.00
2013-2-23,40.0,15.0,-13.0,24.0,9.0,-17.0,92,79,48,30.36,30.02,5,1,0,0.00
2013-2-24,28.0,17.2,-1.0,17.0,10.3,-5.0,91,75,47,30.28,29.98,7,1,0,0.00
2013-2-25,40.0,20.6,8.0,20.0,12.0,4.0,92,72,40,30.44,30.10,4,1,0,0.00
2013-2-26,25.0,18.4,9.0,20.0,13.9,6.0,90,83,66,30.41,30.03,8,2,0,0.00
2013-2-27,31.0,14.7,-3.0,14.0,4.4,-6.0,92,67,33,30.65,30.41,5,1,0,0.00
2013-2-28,43.0,17.8,-12.0,14.0,3.7,-16.0,89,59,22,30.81,30.65,4,1,0,0.00
2013-3-1,46.0,29.7,17.0,24.0,19.0,14.0,88,67,36,30.74,30.50,4,1,0,0.00
2013-3-2,53.0,31.4,6.0,27.0,18.4,3.0,93,65,30,30.68,30.35,4,1,0,0.00
2013-3-3,51.0,38.3,22.0,31.0,24.1,19.0,92,60,29,30.34,29.81,13,2,13,0.00
2013-3-4,47.0,34.6,19.0,35.0,27.1,12.0,95,76,47,30.20,29.75,11,2,21,0.00
2013-3-5,48.0,26.6,6.0,22.0,13.0,3.0,91,62,22,30.47,30.21,4,1,0,0.00
2013-3-6,57.0,38.3,15.0,26.0,18.4,13.0,91,52,18,30.30,29.93,6,1,15,0.00
2013-3-7,57.0,40.4,21.0,23.0,18.3,11.0,90,49,16,30.02,29.86,9,2,13,0.00
2013-3-8,49.0,36.0,24.0,32.0,26.3,20.0,96,71,35,29.93,29.62,8,2,12,0.00
2013-3-9,32.0,28.5,26.0,27.0,24.1,19.0,95,84,61,30.14,29.62,11,2,14,0.00
2013-3-10,39.0,28.0,12.0,24.0,17.6,9.0,93,68,40,30.38,30.13,7,1,0,0.00
2013-3-11,48.0,32.6,13.0,24.0,19.3,11.0,93,62,34,30.41,30.21,5,1,0,0.00
2013-3-12,51.0,37.2,25.0,30.0,25.5,21.0,90,65,40,30.33,30.21,10,1,0,0.00
2013-3-13,56.0,40.1,19.0,28.0,22.9,17.0,95,57,21,30.44,30.33,6,1,0,0.00
2013-3-14,63.0,44.0,20.0,27.0,21.8,18.0,94,50,18,30.46,30.24,6,1,0,0.00
2013-3-15,65.0,47.0,24.0,30.0,24.4,20.0,92,49,19,30.27,29.90,8,1,18,0.00
2013-3-16,47.0,39.0,29.0,40.0,32.6,26.0,91,78,56,29.92,29.78,9,1,17,0.00
2013-3-17,53.0,40.1,23.0,33.0,21.2,11.0,94,53,20,29.89,29.70,16,4,25,0.00
2013-3-18,49.0,36.6,20.0,18.0,13.7,9.0,83,42,20,30.03,29.88,10,3,20,0.00
2013-3-19,48.0,41.3,26.0,24.0,12.6,4.0,61,33,17,30.24,30.08,7,3,15,0.00
2013-3-20,48.0,37.2,16.0,32.0,22.8,13.0,90,58,30,30.25,29.90,10,2,19,0.00
2013-3-21,51.0,40.8,22.0,36.0,24.0,8.0,92,55,24,29.90,29.59,12,3,25,0.00
2013-3-22,51.0,34.0,18.0,18.0,12.2,3.0,87,47,16,29.83,29.59,16,3,26,0.00
2013-3-23,29.0,20.5,9.0,17.0,9.9,3.0,88,64,42,30.31,29.80,8,2,21,0.00
2013-3-24,34.0,19.8,-2.0,12.0,4.5,-5.0,89,56,30,30.42,30.28,12,2,16,0.00
2013-3-25,43.0,23.9,6.0,16.0,6.6,0.0,90,54,17,30.42,30.27,9,1,13,0.00
2013-3-26,59.0,38.5,25.0,24.0,18.3,12.0,81,51,17,30.33,29.95,12,3,23,0.00
2013-3-27,62.0,53.9,30.0,20.0,16.0,13.0,64,25,16,29.99,29.87,9,4,23,0.00
2013-3-28,63.0,48.7,28.0,27.0,20.3,14.0,82,39,16,30.02,29.92,7,2,17,0.00
2013-3-29,65.0,49.2,33.0,28.0,24.1,15.0,73,42,14,30.07,29.94,10,2,18,0.00
2013-3-30,61.0,46.8,26.0,34.0,27.1,-99.9,88,52,27,30.10,29.94,10,2,17,0.00
2013-3-31,64.0,47.0,22.0,32.0,22.5,10.0,96,47,12,30.09,29.88,9,2,16,0.00
2013-4-1,66.0,49.9,33.0,38.0,24.6,11.0,91,45,12,29.95,29.65,11,3,19,0.00
2013-4-2,54.0,39.6,23.0,34.0,24.9,13.0,95,61,20,29.99,29.72,9,2,19,0.00
2013-4-3,56.0,40.7,26.0,37.0,27.3,20.0,95,66,24,30.16,29.99,8,2,12,0.00
2013-4-4,66.0,48.0,20.0,28.0,22.2,18.0,94,44,17,30.24,29.98,7,1,15,0.00
2013-4-5,65.0,50.2,32.0,34.0,26.5,21.0,68,43,21,30.00,29.66,9,3,22,0.00
2013-4-6,62.0,48.3,29.0,33.0,24.6,9.0,88,47,12,29.88,29.72,11,2,18,0.00
2013-4-7,60.0,47.7,29.0,37.0,28.9,20.0,96,55,22,29.84,29.59,10,2,21,0.00
2013-4-8,56.0,42.5,29.0,37.0,29.0,19.0,94,64,27,29.60,29.22,16,3,28,0.00
2013-4-9,34.0,29.7,20.0,32.0,27.6,16.0,95,92,86,30.00,29.32,10,2,14,0.00
2013-4-10,34.0,23.6,12.0,26.0,18.1,9.0,90,79,62,30.26,30.00,8,2,0,0.00
2013-4-11,47.0,34.5,22.0,36.0,27.5,19.0,94,76,55,30.21,29.90,8,1,0,0.00
2013-4-12,55.0,40.2,25.0,30.0,26.5,20.0,94,64,27,29.95,29.83,7,1,13,0.00
2013-4-13,62.0,49.6,23.0,27.0,20.4,12.0,87,38,17,29.90,29.33,19,6,34,0.00
2013-4-14,55.0,42.2,32.0,38.0,27.5,15.0,95,61,22,29.61,29.42,12,3,18,0.00
2013-4-15,56.0,44.3,27.0,34.0,29.7,25.0,93,60,33,29.54,29.40,16,6,22,0.00
2013-4-16,66.0,51.2,26.0,33.0,20.2,10.0,94,36,11,29.60,29.36,16,6,27,0.00
2013-4-17,35.0,26.6,20.0,31.0,24.0,14.0,94,90,83,30.17,29.50,12,3,14,0.00
2013-4-18,32.0,22.8,12.0,19.0,14.0,8.0,91,70,43,30.49,30.16,5,1,0,0.00
2013-4-19,50.0,33.4,12.0,26.0,17.4,9.0,92,56,32,30.50,30.13,8,2,14,0.00
2013-4-20,46.0,36.2,28.0,38.0,31.7,26.0,95,84,62,30.13,29.93,5,1,0,0.00
2013-4-21,60.0,43.4,24.0,36.0,25.5,9.0,97,59,14,30.19,29.96,8,2,13,0.00
2013-4-22,64.0,51.7,40.0,34.0,26.3,18.0,75,42,17,29.96,29.58,15,4,19,0.00
2013-4-23,46.0,35.1,27.0,32.0,25.3,16.0,95,69,38,30.14,29.71,7,2,12,0.00
2013-4-24,54.0,38.7,25.0,23.0,18.6,11.0,88,50,22,30.23,30.11,7,2,15,0.00
2013-4-25,65.0,50.0,25.0,28.0,22.4,16.0,90,40,17,30.14,29.82,13,2,16,0.00
2013-4-26,63.0,48.4,26.0,29.0,20.8,12.0,85,40,14,30.11,29.91,9,2,15,0.00
2013-4-27,66.0,50.4,24.0,27.0,19.9,11.0,88,37,12,30.22,29.99,6,2,14,0.00
2013-4-28,72.0,54.4,24.0,28.0,22.2,17.0,88,36,12,30.06,29.78,10,2,14,0.00
2013-4-29,75.0,59.2,29.0,32.0,24.6,15.0,87,33,11,29.84,29.54,10,3,19,0.00
2013-4-30,75.0,63.1,38.0,30.0,20.5,11.0,73,24,10,29.56,29.39,19,5,26,0.00
2013-5-1,55.0,42.1,34.0,37.0,24.8,8.0,92,56,19,30.27,29.44,14,4,24,0.00
2013-5-2,51.0,38.7,16.0,19.0,14.4,11.0,87,41,22,30.57,30.29,11,3,15,0.00
2013-5-3,63.0,49.3,15.0,18.0,12.3,7.0,88,29,11,30.46,29.95,10,3,14,0.00
2013-5-4,69.0,53.3,20.0,24.0,17.1,10.0,83,30,12,29.97,29.74,12,2,16,0.00
2013-5-5,64.0,56.0,39.0,30.0,22.4,16.0,52,28,18,29.81,29.70,10,3,16,0.00
2013-5-6,59.0,47.1,36.0,43.0,35.6,29.0,95,66,36,29.90,29.68,12,2,14,0.00
2013-5-7,57.0,45.1,35.0,41.0,37.5,31.0,95,77,38,29.94,29.85,9,2,0,0.00
2013-5-8,50.0,41.0,34.0,40.0,36.5,32.0,94,85,62,30.01,29.85,12,2,16,0.00
2013-5-9,60.0,45.3,35.0,42.0,37.8,32.0,96,77,41,30.06,29.93,9,2,0,0.00
2013-5-10,62.0,48.1,27.0,37.0,30.3,-99.9,97,58,32,30.19,30.05,13,2,15,0.00
2013-5-11,68.0,54.8,27.0,33.0,27.3,-99.9,93,41,18,30.28,30.09,14,2,18,0.00
2013-5-12,72.0,56.4,39.0,37.0,32.3,29.0,81,45,21,30.17,29.96,9,2,14,0.00
2013-5-13,79.0,62.7,33.0,39.0,34.8,29.0,89,40,18,30.10,29.90,10,3,20,0.00
2013-5-14,77.0,56.3,35.0,39.0,34.4,31.0,88,50,20,29.92,29.77,5,1,0,0.00
2013-5-15,76.0,65.8,42.0,42.0,38.1,33.0,77,38,25,29.75,29.57,10,3,15,0.00
2013-5-16,78.0,54.4,32.0,35.0,11.0,-99.9,86,40,15,29.78,29.60,8,2,17,0.00
2013-5-17,77.0,59.1,32.0,32.0,17.7,-99.9,77,30,7,29.76,29.57,11,3,18,0.00
2013-5-18,68.0,52.0,36.0,37.0,29.1,21.0,83,46,18,29.76,29.58,24,4,33,0.00
2013-5-19,61.0,43.9,32.0,37.0,31.7,27.0,93,67,27,29.82,29.76,9,2,19,0.00
2013-5-20,60.0,52.6,43.0,37.0,33.0,29.0,69,49,31,29.99,29.88,12,4,19,0.00
2013-5-21,70.0,53.4,29.0,37.0,30.8,25.0,93,48,19,30.01,29.75,10,2,14,0.00
2013-5-22,79.0,66.2,38.0,32.0,24.8,15.0,77,25,9,29.78,29.53,13,3,23,0.00
2013-5-23,82.0,66.8,32.0,33.0,19.9,11.0,79,23,7,29.69,29.51,14,5,21,0.00
2013-5-24,80.0,64.1,33.0,27.0,19.8,12.0,68,23,9,29.78,29.62,10,2,17,0.00
2013-5-25,82.0,63.6,28.0,31.0,19.5,11.0,84,27,7,29.86,29.65,9,3,16,0.00
2013-5-26,79.0,60.3,34.0,28.0,23.9,19.0,74,32,12,29.81,29.64,6,2,16,0.00
2013-5-27,77.0,69.1,41.0,26.0,19.2,12.0,44,16,11,29.72,29.55,10,4,18,0.00
2013-5-28,74.0,60.2,31.0,37.0,25.0,19.0,72,30,13,29.65,29.40,9,4,24,0.00
2013-5-29,64.0,52.3,41.0,42.0,34.6,22.0,94,57,24,29.64,29.45,9,3,20,0.00
2013-5-30,69.0,56.1,42.0,34.0,27.5,19.0,63,37,15,29.74,29.63,11,3,24,0.00
2013-5-31,66.0,55.2,37.0,31.0,24.0,18.0,73,34,16,29.96,29.74,12,4,24,0.00
2013-6-1,71.0,55.2,23.0,24.0,19.9,15.0,82,31,13,30.13,29.95,9,3,14,0.00
2013-6-2,84.0,65.4,27.0,33.0,23.7,13.0,84,28,8,30.03,29.65,11,2,17,0.00
2013-6-3,81.0,66.2,40.0,39.0,30.9,24.0,76,32,14,29.69,29.57,11,3,22,0.00
2013-6-4,81.0,64.5,39.0,39.0,33.2,28.0,75,35,16,29.73,29.61,6,2,27,0.00
2013-6-5,80.0,71.1,48.0,35.0,29.2,23.0,45,22,15,29.75,29.63,11,4,17,0.00
2013-6-6,79.0,62.1,32.0,35.0,30.1,27.0,84,36,15,29.83,29.68,10,3,16,0.00
2013-6-7,80.0,61.2,36.0,38.0,33.5,29.0,86,42,17,29.80,29.62,10,2,24,0.00
2013-6-8,84.0,66.3,37.0,42.0,35.7,30.0,84,38,16,29.72,29.59,11,2,15,0.00
2013-6-9,88.0,67.4,36.0,40.0,32.0,24.0,89,36,10,29.83,29.65,6,2,0,0.00
2013-6-10,93.0,71.5,38.0,40.0,29.5,19.0,87,30,9,29.73,29.51,12,3,15,0.00
2013-6-11,87.0,63.7,39.0,36.0,26.6,17.0,75,35,9,29.70,29.59,9,3,22,0.00
2013-6-12,90.0,82.5,52.0,37.0,24.9,14.0,47,14,7,29.84,29.69,12,4,22,0.00
2013-6-13,90.0,80.5,64.0,43.0,31.5,25.0,44,19,10,29.74,29.57,15,5,30,0.00
2013-6-14,86.0,75.9,55.0,41.0,27.3,13.0,55,21,7,29.64,29.52,13,4,20,0.00
2013-6-15,83.0,72.2,47.0,34.0,30.2,25.0,45,23,13,29.84,29.65,9,3,20,0.00
2013-6-16,78.0,64.6,43.0,41.0,38.3,33.0,67,40,26,29.86,29.78,3,1,0,0.00
2013-6-17,82.0,77.8,65.0,41.0,30.3,22.0,34,18,11,29.84,29.67,8,3,15,0.00
2013-6-18,87.0,79.6,53.0,35.0,25.5,8.0,45,15,6,29.81,29.57,11,4,18,0.00
2013-6-19,88.0,81.0,64.0,31.0,9.0,-4.0,26,8,3,29.61,29.46,14,5,21,0.00
2013-6-20,87.0,76.3,42.0,29.0,21.4,14.0,47,15,7,29.65,29.52,7,3,23,0.00
2013-6-22,84.0,80.1,62.0,31.0,21.2,16.0,31,12,8,29.68,29.56,14,5,21,0.00
2013-6-23,85.0,75.8,47.0,31.0,23.4,11.0,50,16,7,29.72,29.51,6,3,0,0.00
2013-6-24,85.0,76.0,63.0,27.0,16.8,6.0,24,11,5,29.65,29.55,12,5,20,0.00
2013-6-25,84.0,76.8,59.0,35.0,29.6,21.0,32,18,15,29.74,29.63,10,4,13,0.00
2013-6-26,93.0,84.8,52.0,41.0,34.6,30.0,60,18,11,29.86,29.70,6,2,0,0.00
2013-6-27,93.0,82.1,54.0,42.0,37.6,30.0,61,22,12,29.92,29.77,9,3,24,0.00
2013-6-28,92.0,79.7,54.0,44.0,39.1,31.0,64,27,12,29.91,29.80,10,2,0,0.00
2013-6-29,91.0,78.6,64.0,49.0,42.6,38.0,48,29,17,29.79,29.57,9,2,13,0.00
2013-6-30,88.0,77.9,50.0,45.0,42.1,38.0,76,30,18,29.80,29.60,12,3,19,0.00
2013-7-1,87.0,79.8,53.0,45.0,40.6,34.0,72,27,17,29.83,29.66,10,3,14,0.00
2013-7-2,87.0,79.9,50.0,44.0,38.2,31.0,72,25,16,29.83,29.64,7,3,16,0.00
2013-7-3,87.0,76.2,51.0,43.0,37.1,31.0,68,27,15,29.79,29.58,9,3,16,0.00
2013-7-4,86.0,77.9,55.0,44.0,40.0,34.0,63,28,17,29.72,29.51,7,2,0,0.00
2013-7-5,86.0,78.3,62.0,58.0,47.8,44.0,60,36,25,29.58,29.42,9,3,0,0.00
2013-7-6,86.0,71.9,58.0,52.0,47.7,43.0,75,45,25,29.66,29.52,6,2,0,0.00
2013-7-7,88.0,73.0,57.0,54.0,47.7,42.0,74,44,21,29.71,29.51,10,2,27,0.00
2013-7-8,90.0,70.9,53.0,53.0,44.3,-99.9,82,46,15,29.79,29.67,14,2,16,0.00
2013-7-9,93.0,81.2,54.0,47.0,37.9,32.0,65,24,12,29.87,29.70,5,2,0,0.00
2013-7-10,93.0,79.7,57.0,47.0,40.1,-99.9,65,27,15,29.79,29.58,12,2,15,0.00
2013-7-11,89.0,70.8,54.0,61.0,50.5,40.0,93,55,23,29.75,29.56,8,1,14,0.00
2013-7-12,81.0,64.7,52.0,61.0,55.3,51.0,97,75,39,29.79,29.67,5,1,0,0.00
2013-7-13,81.0,67.0,52.0,64.0,56.2,50.0,95,71,39,29.83,29.68,9,1,0,0.00
2013-7-14,85.0,71.3,59.0,57.0,52.1,44.0,86,55,28,29.83,29.61,7,2,13,0.00
2013-7-15,87.0,69.4,52.0,58.0,52.3,48.0,92,59,27,29.75,29.54,9,2,17,0.00
2013-7-16,84.0,65.5,50.0,58.0,54.5,49.0,96,71,37,29.84,29.65,9,1,19,0.00
2013-7-17,86.0,68.2,56.0,59.0,56.0,53.0,95,70,32,29.91,29.74,6,2,15,0.00
2013-7-18,81.0,65.7,54.0,60.0,55.1,51.0,96,72,37,29.90,29.72,15,2,20,0.00
2013-7-19,81.0,65.2,52.0,58.0,52.7,50.0,95,67,37,29.89,29.71,10,2,19,0.00
2013-7-20,87.0,70.2,51.0,54.0,45.9,-99.9,94,51,14,29.78,29.54,8,1,0,0.00
2013-7-21,90.0,80.2,55.0,49.0,42.0,32.0,77,29,13,29.68,29.55,9,2,13,0.00
2013-7-22,89.0,80.9,54.0,50.0,38.3,26.0,75,26,11,29.74,29.59,9,2,16,0.00
2013-7-23,90.0,78.4,54.0,48.0,42.2,29.0,73,30,13,29.79,29.64,10,3,14,0.00
2013-7-24,82.0,68.8,59.0,56.0,47.7,41.0,86,49,29,29.79,29.67,10,1,14,0.00
2013-7-25,87.0,71.7,58.0,52.0,46.7,37.0,75,46,18,29.81,29.67,7,2,0,0.00
2013-7-26,87.0,80.0,56.0,53.0,45.5,37.0,88,32,19,29.89,29.75,6,2,0,0.00
2013-7-27,87.0,66.2,55.0,58.0,48.6,41.0,88,57,26,29.83,29.59,9,2,19,0.00
2013-7-28,62.0,58.8,55.0,59.0,56.0,52.0,94,91,83,29.77,29.64,4,0,0,0.00
2013-7-29,76.0,60.9,52.0,58.0,52.8,46.0,96,78,35,29.95,29.77,11,2,21,0.00
2013-7-30,83.0,66.9,46.0,55.0,46.8,37.0,97,57,21,30.06,29.94,8,2,16,0.00
2013-7-31,88.0,78.9,49.0,51.0,42.4,37.0,97,31,18,30.05,29.80,6,2,0,0.00
2013-8-1,68.0,62.1,54.0,59.0,56.6,49.0,95,83,67,29.91,29.82,9,2,0,0.00
2013-8-2,82.0,65.9,53.0,59.0,54.9,50.0,95,71,40,29.98,29.73,4,1,0,0.00
2013-8-3,79.0,62.0,53.0,59.0,54.9,49.0,95,79,42,29.89,29.77,4,0,0,0.00
2013-8-4,81.0,67.8,48.0,55.0,52.4,47.0,97,61,30,30.00,29.87,7,1,15,0.00
2013-8-5,78.0,64.8,54.0,56.0,52.6,49.0,94,68,38,29.91,29.72,9,2,0,0.00
2013-8-6,80.0,60.8,51.0,56.0,52.1,48.0,93,76,38,29.85,29.70,8,1,13,0.00
2013-8-7,69.0,57.9,52.0,56.0,52.3,49.0,95,83,50,29.89,29.79,8,1,15,0.00
2013-8-8,72.0,59.6,52.0,54.0,50.3,47.0,93,73,48,29.90,29.80,9,1,20,0.00
2013-8-9,75.0,63.3,48.0,50.0,46.1,40.0,96,56,29,29.95,29.86,9,2,13,0.00
2013-8-10,76.0,55.8,45.0,51.0,45.4,40.0,94,72,32,30.14,29.92,8,2,18,0.00
2013-8-11,77.0,62.4,40.0,50.0,44.6,39.0,97,58,29,30.14,29.93,5,1,0,0.00
2013-8-15,84.0,61.5,58.0,44.0,8.6,-99.9,57,23,16,29.95,29.84,5,1,0,0.00
2013-8-16,89.0,75.6,46.0,46.0,29.2,-99.9,83,24,12,29.98,29.80,5,2,0,0.00
2013-8-17,86.0,74.3,51.0,51.0,41.1,-99.9,78,34,19,29.94,29.78,6,2,20,0.00
2013-8-18,81.0,69.4,54.0,53.0,49.7,45.0,81,52,31,29.92,29.81,8,2,17,0.00
2013-8-19,87.0,65.8,50.0,52.0,37.8,-99.9,91,49,25,29.95,29.72,13,2,16,0.00
2013-8-20,85.0,65.5,52.0,55.0,48.0,-99.9,85,59,27,29.83,29.69,9,1,0,0.00
2013-8-21,84.0,70.2,48.0,53.0,49.7,45.0,96,51,28,29.94,29.83,7,1,0,0.00
2013-8-22,82.0,69.4,56.0,56.0,51.2,48.0,92,56,32,29.90,29.72,6,2,14,0.00
2013-8-23,82.0,72.8,52.0,55.0,51.2,45.0,97,50,29,29.82,29.67,6,2,0,0.00
2013-8-24,74.0,62.0,51.0,54.0,48.7,-99.9,93,66,35,29.89,29.77,6,1,0,0.00
2013-8-25,67.0,59.9,54.0,58.0,55.2,52.0,95,85,66,29.98,29.88,4,1,0,0.00
2013-8-26,77.0,62.7,54.0,62.0,56.1,52.0,96,81,45,30.01,29.85,7,1,14,0.00
2013-8-27,80.0,63.2,48.0,59.0,54.3,47.0,97,76,43,29.97,29.83,6,2,0,0.00
2013-8-28,87.0,82.1,73.0,56.0,51.4,49.0,54,35,30,29.86,29.74,5,2,0,0.00
2013-8-29,82.0,73.5,55.0,56.0,54.1,52.0,97,54,37,29.96,29.86,3,1,0,0.00
2013-8-30,84.0,69.2,54.0,59.0,55.2,50.0,94,64,33,29.95,29.81,6,0,0,0.00
2013-8-31,85.0,69.3,56.0,57.0,50.7,-99.9,91,58,30,29.88,29.72,5,1,0,0.00
2013-9-1,80.0,72.6,56.0,55.0,53.5,51.0,87,53,37,29.86,29.77,6,2,0,0.00
2013-9-2,84.0,66.5,53.0,54.0,51.8,48.0,89,63,30,29.91,29.74,5,1,0,0.00
2013-9-3,86.0,73.1,54.0,55.0,51.5,44.0,87,50,25,29.90,29.78,5,1,0,0.00
2013-9-4,89.0,68.0,54.0,57.0,52.1,49.0,92,64,26,29.92,29.77,10,1,17,0.00
2013-9-5,89.0,71.4,56.0,56.0,51.3,46.0,87,55,23,29.92,29.75,7,2,13,0.00
2013-9-6,88.0,75.9,52.0,55.0,47.5,43.0,95,42,21,29.91,29.71,7,1,25,0.00
2013-9-7,88.0,71.2,50.0,53.0,44.9,-99.9,88,45,22,29.87,29.69,13,2,16,0.00
2013-9-8,80.0,63.3,54.0,56.0,52.8,48.0,95,72,35,29.82,29.61,6,1,14,0.00
2013-9-9,70.0,56.9,50.0,58.0,53.2,49.0,97,89,57,29.79,29.65,4,1,0,0.00
2013-9-10,66.0,56.8,51.0,59.0,54.3,50.0,97,91,73,29.83,29.75,5,1,0,0.00
2013-9-11,72.0,59.0,52.0,59.0,54.1,50.0,97,85,54,29.92,29.80,8,1,0,0.00
2013-9-12,70.0,58.9,44.0,56.0,51.4,43.0,97,79,53,29.97,29.82,4,0,0,0.00
2013-9-13,74.0,59.1,45.0,54.0,49.6,44.0,96,74,39,29.91,29.64,6,1,0,0.00
2013-9-14,69.0,54.6,51.0,53.0,48.6,-99.9,93,83,51,29.83,29.67,5,1,13,0.00
2013-9-15,67.0,54.4,46.0,52.0,48.4,44.0,96,82,51,29.94,29.80,4,1,13,0.00
2013-9-16,73.0,55.3,42.0,53.0,47.1,41.0,97,77,45,30.04,29.87,7,1,14,0.00
2013-9-17,78.0,66.9,44.0,52.0,47.4,43.0,97,52,33,29.94,29.67,6,2,14,0.00
2013-9-18,53.0,50.5,49.0,49.0,47.6,47.0,92,90,86,29.74,29.73,4,2,0,0.00
2013-9-19,69.0,56.1,43.0,51.0,46.3,40.0,97,73,41,29.90,29.74,9,2,0,0.00
2013-9-20,76.0,68.3,37.0,43.0,39.3,35.0,97,37,24,30.03,29.85,5,2,0,0.00
2013-9-21,76.0,64.5,43.0,47.0,41.0,-99.9,91,47,28,29.89,29.62,8,2,15,0.00
2013-9-22,63.0,51.7,40.0,53.0,45.6,37.0,95,81,45,29.63,29.37,8,1,19,0.00
2013-9-23,60.0,47.9,37.0,42.0,38.5,34.0,94,73,42,30.09,29.62,6,1,13,0.00
2013-9-24,71.0,62.1,30.0,41.0,35.0,27.0,96,40,21,30.15,29.88,5,2,0,0.00
2013-9-25,74.0,68.1,33.0,39.0,31.1,23.0,94,27,19,29.75,29.41,18,7,29,0.00
2013-9-26,72.0,62.9,53.0,34.0,25.2,20.0,37,24,16,29.47,29.30,14,4,21,0.00
2013-9-27,59.0,46.5,30.0,42.0,34.9,26.0,93,67,35,30.02,29.34,15,2,17,0.00
2013-9-28,60.0,40.3,22.0,36.0,27.3,-99.9,96,66,36,30.29,30.02,4,1,0,0.00
2013-9-29,70.0,61.9,42.0,32.0,26.4,21.0,58,28,19,30.24,30.01,7,3,13,0.00
2013-9-30,75.0,69.7,56.0,38.0,34.0,26.0,50,28,20,29.96,29.81,7,2,0,0.00
2013-10-1,74.0,74.0,74.0,32.0,32.0,32.0,21,21,21,29.78,29.78,2,2,0,0.00
2013-10-2,74.0,67.0,40.0,33.0,28.2,21.0,75,24,16,29.95,29.72,8,3,0,0.00
2013-10-3,72.0,63.0,42.0,35.0,29.7,24.0,67,30,17,29.73,29.50,12,5,25,0.00
2013-10-4,41.0,32.8,22.0,32.0,26.9,19.0,95,80,57,30.37,29.80,7,1,0,0.00
2013-10-5,48.0,32.8,23.0,29.0,25.6,22.0,94,77,45,30.48,30.37,7,1,0,0.00
2013-10-6,58.0,48.4,22.0,30.0,25.9,21.0,96,45,28,30.53,30.34,6,2,0,0.00
2013-10-7,69.0,57.9,22.0,37.0,33.2,21.0,95,44,25,30.34,30.03,7,2,0,0.00
2013-10-8,71.0,62.5,38.0,36.0,29.3,25.0,81,32,18,30.01,29.65,9,4,18,0.00
2013-10-9,68.0,59.9,42.0,39.0,25.8,17.0,76,30,15,29.77,29.67,7,3,22,0.00
2013-10-10,49.0,40.6,34.0,42.0,36.5,29.0,95,86,65,29.81,29.49,8,2,16,0.00
2013-10-11,52.0,41.0,33.0,38.0,33.6,30.0,94,76,53,30.06,29.81,8,2,14,0.00
2013-10-12,61.0,41.1,24.0,34.0,27.1,-99.9,96,65,28,30.18,30.00,5,1,0,0.00
2013-10-13,66.0,55.3,31.0,40.0,34.5,28.0,88,50,25,30.06,29.80,12,3,22,0.00
2013-10-14,53.0,42.2,29.0,38.0,31.9,25.0,91,68,35,30.07,29.80,14,3,19,0.00
2013-10-15,48.0,34.9,25.0,34.0,29.8,24.0,96,83,52,30.17,30.04,8,1,14,0.00
2013-10-16,48.0,35.3,26.0,34.0,29.6,23.0,96,82,46,30.20,30.14,4,1,0,0.00
2013-10-17,55.0,37.1,21.0,27.0,22.1,17.0,96,63,24,30.27,30.02,6,1,0,0.00
2013-10-18,47.0,36.4,26.0,28.0,23.6,16.0,89,64,29,30.28,30.05,6,1,0,0.00
2013-10-19,55.0,46.6,27.0,25.0,20.2,-99.9,84,39,24,30.35,30.17,6,2,0,0.00
2013-10-20,56.0,47.8,20.0,29.0,24.9,18.0,93,44,27,30.16,29.99,7,2,0,0.00
2013-10-21,56.0,43.4,27.0,29.0,21.9,11.0,86,51,18,30.24,30.13,7,2,0,0.00
2013-10-22,59.0,53.5,29.0,29.0,26.5,23.0,85,36,29,30.39,30.23,9,3,0,0.00
2013-10-23,65.0,59.4,31.0,32.0,27.5,24.0,90,31,22,30.29,30.10,8,3,0,0.00
2013-10-24,66.0,58.3,36.0,33.0,28.2,24.0,80,34,22,30.23,30.07,10,3,0,0.00
2013-10-25,58.0,44.1,34.0,41.0,36.4,31.0,93,76,43,30.21,30.05,7,1,0,0.00
2013-10-26,61.0,48.0,31.0,37.0,31.5,-99.9,97,59,32,30.35,30.20,5,2,12,0.00
2013-10-27,64.0,56.6,36.0,34.0,30.6,28.0,90,39,28,30.17,29.83,7,2,0,0.00
2013-10-28,62.0,49.5,35.0,30.0,22.4,-99.9,68,38,21,29.78,29.62,12,4,18,0.00
2013-10-29,53.0,44.3,32.0,35.0,25.3,16.0,95,52,25,29.78,29.62,11,4,18,0.00
2013-10-30,42.0,30.4,20.0,31.0,27.1,18.0,95,88,61,30.08,29.78,4,1,0,0.00
2013-10-31,41.0,31.9,25.0,31.0,25.4,22.0,96,78,48,30.21,30.08,7,0,0,0.00
2013-11-1,48.0,38.0,26.0,33.0,27.7,22.0,89,69,38,30.32,30.20,6,1,0,0.00
2013-11-2,59.0,49.0,34.0,29.0,22.9,-99.9,74,41,28,30.28,30.06,8,2,0,0.00
2013-11-3,58.0,48.7,34.0,31.0,23.9,13.0,79,41,22,29.86,29.62,16,5,24,0.00
2013-11-4,44.0,32.8,20.0,27.0,23.6,18.0,92,70,49,29.98,29.79,7,1,12,0.00
2013-11-5,34.0,26.9,15.0,25.0,21.6,12.0,92,81,53,30.40,29.97,5,1,0,0.00
2013-11-6,45.0,37.8,20.0,23.0,21.1,17.0,87,53,40,30.72,30.62,6,2,0,0.00
2013-11-7,53.0,41.1,16.0,28.0,25.6,15.0,95,58,35,30.70,30.30,6,1,0,0.00
2013-11-8,61.0,41.1,25.0,27.0,22.4,19.0,91,57,21,30.30,30.01,7,2,13,0.00
2013-11-9,60.0,54.8,36.0,29.0,25.2,23.0,74,34,24,30.27,30.17,7,2,0,0.00
2013-11-10,62.0,57.8,48.0,25.0,23.2,20.0,40,27,20,30.36,30.25,6,2,0,0.00
2013-11-11,59.0,53.7,27.0,26.0,21.5,20.0,73,30,23,30.51,30.36,6,2,0,0.00
2013-11-12,61.0,52.2,33.0,28.0,24.0,21.0,73,36,22,30.64,30.47,8,2,0,0.00
2013-11-13,57.0,49.7,31.0,28.0,24.8,23.0,79,39,27,30.46,30.22,5,1,0,0.00
2013-11-14,54.0,40.6,27.0,31.0,26.4,21.0,88,61,32,30.22,29.94,8,2,13,0.00
2013-11-15,53.0,39.4,26.0,34.0,26.1,19.0,96,64,28,29.86,29.56,9,3,20,0.00
2013-11-16,42.0,35.5,28.0,33.0,28.0,-99.9,96,78,51,29.70,29.52,18,4,29,0.00
2013-11-17,52.0,41.4,27.0,30.0,26.5,23.0,85,57,33,30.12,29.71,10,3,19,0.00
2013-11-18,53.0,46.2,18.0,22.0,19.9,15.0,95,37,24,30.38,30.21,4,1,0,0.00
2013-11-19,52.0,40.9,23.0,32.0,28.6,20.0,90,63,42,30.17,29.91,6,2,0,0.00
2013-11-20,51.0,36.7,27.0,36.0,30.0,24.0,95,79,43,29.95,29.74,5,1,0,0.00
2013-11-21,45.0,36.5,31.0,38.0,33.9,30.0,97,91,69,30.15,29.86,4,0,0,0.00
2013-11-22,32.0,29.9,27.0,31.0,28.1,26.0,95,93,90,30.31,30.15,5,1,0,0.00
2013-11-23,42.0,33.7,30.0,36.0,30.5,-99.9,96,91,78,30.34,30.14,5,1,0,0.00
2013-11-24,34.0,32.0,28.0,33.0,31.0,27.0,97,96,94,30.15,30.03,4,1,0,0.00
2013-12-1,37.0,26.7,21.0,30.0,24.4,20.0,95,91,72,30.51,30.35,7,2,0,0.00
2013-12-2,41.0,30.3,24.0,34.0,27.1,23.0,96,88,72,30.39,29.86,4,1,0,0.00
2013-12-3,51.0,41.1,27.0,30.0,24.4,20.0,91,55,30,29.84,29.29,14,5,20,0.00
2013-12-4,42.0,23.0,-4.0,29.0,16.7,-7.0,92,78,49,30.04,29.21,16,2,25,0.00
2013-12-5,25.0,9.8,-10.0,15.0,4.5,-14.0,87,79,60,30.40,30.09,0,0,0,0.00
2013-12-6,20.0,9.0,-4.0,13.0,4.1,-7.0,88,80,65,30.61,30.52,0,0,0,0.00
2013-12-7,24.0,14.7,2.0,18.0,9.4,-99.9,90,82,71,30.59,29.88,5,1,0,0.00
2013-12-8,23.0,16.6,-5.0,18.0,7.6,-9.0,88,68,44,30.19,29.84,10,3,23,0.00
2013-12-9,16.0,4.6,-10.0,4.0,-2.8,-13.0,86,73,48,31.02,30.29,7,1,0,0.00
2013-12-10,28.0,18.2,-10.0,11.0,6.1,-13.0,87,60,47,31.02,30.80,4,2,0,0.00
2013-12-13,36.0,23.1,0.0,21.0,14.3,-3.0,91,70,47,30.57,30.29,6,1,0,0.00
2013-12-14,34.0,19.6,-1.0,18.0,9.1,-99.9,92,70,44,30.83,30.70,4,1,0,0.00
2013-12-15,45.0,30.0,6.0,22.0,17.1,3.0,92,61,38,30.86,30.67,5,1,0,0.00
2013-12-16,53.0,37.3,7.0,24.0,20.9,5.0,94,55,29,30.76,30.60,4,0,0,0.00
2013-12-17,50.0,42.4,28.0,24.0,22.0,20.0,72,45,32,30.71,30.55,3,1,0,0.00
2013-12-18,49.0,35.8,26.0,27.0,23.6,21.0,84,63,35,30.23,29.99,7,2,0,0.00
2013-12-19,48.0,36.5,24.0,28.0,24.6,20.0,87,64,34,29.99,29.65,7,2,0,0.00
2013-12-20,37.0,29.6,26.0,31.0,27.1,24.0,95,91,80,29.75,29.64,7,1,0,0.00
2013-12-21,28.0,23.4,16.0,25.0,18.8,-99.9,94,85,76,30.06,29.67,6,1,0,0.00
2013-12-22,32.0,22.4,6.0,20.0,15.0,4.0,92,74,42,30.52,30.06,7,1,0,0.00
2014-1-2,51.0,42.1,29.0,14.0,8.7,6.0,53,26,16,30.61,30.45,6,2,0,0.00